createdAt,value
2018-11-10T00:00:34.582Z,1001.40
2018-11-10T00:01:33.013Z,1001.38
2018-11-10T00:03:27.464Z,1001.35
2018-11-10T00:04:27.854Z,1001.39
2018-11-10T00:06:20.305Z,1001.35
2018-11-10T00:07:19.775Z,1001.32
2018-11-10T00:09:12.713Z,1001.33
2018-11-10T00:10:12.694Z,1001.30
2018-11-10T00:12:05.798Z,1001.33
2018-11-10T00:13:05.568Z,1001.31
2018-11-10T00:14:59.503Z,1001.29
2018-11-10T00:15:58.427Z,1001.33
2018-11-10T00:17:51.518Z,1001.24
2018-11-10T00:18:51.269Z,1001.24
2018-11-10T00:20:44.897Z,1001.21
2018-11-10T00:21:44.631Z,1001.21
2018-11-10T00:23:37.819Z,1001.25
2018-11-10T00:24:37.498Z,1001.20
2018-11-10T00:26:31.212Z,1001.18
2018-11-10T00:27:30.879Z,1001.17
2018-11-10T00:29:25.437Z,1001.14
2018-11-10T00:30:25.231Z,1001.16
2018-11-10T00:32:18.655Z,1001.08
2018-11-10T00:33:18.606Z,1001.07
2018-11-10T00:35:11.663Z,1001.05
2018-11-10T00:36:11.474Z,1001.01
2018-11-10T00:38:04.530Z,1000.98
2018-11-10T00:39:04.324Z,1000.97
2018-11-10T00:40:57.885Z,1001.01
2018-11-10T00:42:01.863Z,1000.98
2018-11-10T00:43:51.245Z,1001.02
2018-11-10T00:44:51.035Z,1000.93
2018-11-10T00:46:44.784Z,1000.93
2018-11-10T00:47:44.398Z,1000.98
2018-11-10T00:49:38.065Z,1001.00
2018-11-10T00:50:38.344Z,1001.00
2018-11-10T00:52:31.401Z,1000.90
2018-11-10T00:53:31.189Z,1000.94
2018-11-10T00:55:24.092Z,1000.94
2018-11-10T00:56:24.041Z,1000.87
2018-11-10T00:58:17.028Z,1000.82
2018-11-10T00:59:17.140Z,1000.81
2018-11-10T01:01:09.819Z,1000.79
2018-11-10T01:02:09.768Z,1000.85
2018-11-10T01:04:02.828Z,1000.88
2018-11-10T01:05:02.620Z,1000.83
2018-11-10T01:06:55.874Z,1000.81
2018-11-10T01:07:55.498Z,1000.81
2018-11-10T01:09:49.076Z,1000.78
2018-11-10T01:10:48.829Z,1000.75
2018-11-10T01:12:42.445Z,1000.74
2018-11-10T01:13:42.206Z,1000.68
2018-11-10T01:15:35.096Z,1000.72
2018-11-10T01:16:35.062Z,1000.63
2018-11-10T01:18:28.258Z,1000.63
2018-11-10T01:19:27.916Z,1000.65
2018-11-10T01:21:21.460Z,1000.60
2018-11-10T01:22:21.283Z,1000.56
2018-11-10T01:24:14.426Z,1000.53
2018-11-10T01:25:14.138Z,1000.51
2018-11-10T01:27:07.527Z,1000.52
2018-11-10T01:28:07.488Z,1000.45
2018-11-10T01:30:00.872Z,1000.49
2018-11-10T01:31:00.844Z,1000.51
2018-11-10T01:32:53.981Z,1000.48
2018-11-10T01:33:53.729Z,1000.51
2018-11-10T01:35:47.129Z,1000.48
2018-11-10T01:36:47.069Z,1000.50
2018-11-10T01:38:40.204Z,1000.47
2018-11-10T01:39:39.934Z,1000.52
2018-11-10T01:41:33.422Z,1000.41
2018-11-10T01:42:33.278Z,1000.50
2018-11-10T01:44:26.668Z,1000.50
2018-11-10T01:45:26.639Z,1000.44
2018-11-10T01:47:20.025Z,1000.34
2018-11-10T01:48:19.997Z,1000.31
2018-11-10T01:50:13.365Z,1000.33
2018-11-10T01:51:13.358Z,1000.34
2018-11-10T01:53:06.239Z,1000.25
2018-11-10T01:54:06.213Z,1000.21
2018-11-10T01:55:59.857Z,1000.18
2018-11-10T01:56:59.564Z,1000.10
2018-11-10T01:58:52.943Z,1000.08
2018-11-10T01:59:52.950Z,1000.17
2018-11-10T02:01:46.413Z,1000.08
2018-11-10T02:02:46.289Z,1000.07
2018-11-10T02:04:39.826Z,1000.07
2018-11-10T02:05:39.649Z,1000.00
2018-11-10T02:07:33.270Z,1000.04
2018-11-10T02:08:32.980Z,999.94
2018-11-10T02:10:26.948Z,1000.00
2018-11-10T02:11:26.363Z,1000.01
2018-11-10T02:13:22.465Z,1000.00
2018-11-10T02:14:19.715Z,999.97
2018-11-10T02:16:13.091Z,1000.02
2018-11-10T02:17:13.077Z,1000.01
2018-11-10T02:19:06.129Z,999.92
2018-11-10T02:20:05.936Z,1000.00
2018-11-10T02:21:59.333Z,1000.02
2018-11-10T02:22:59.289Z,999.99
2018-11-10T02:24:52.694Z,999.95
2018-11-10T02:25:52.649Z,1000.02
2018-11-10T02:27:46.110Z,999.97
2018-11-10T02:28:45.515Z,999.99
2018-11-10T02:30:38.450Z,1000.02
2018-11-10T02:31:38.413Z,999.97
2018-11-10T02:33:31.592Z,999.92
2018-11-10T02:34:31.289Z,1000.00
2018-11-10T02:36:24.898Z,999.94
2018-11-10T02:37:24.631Z,999.85
2018-11-10T02:39:18.279Z,999.84
2018-11-10T02:40:17.988Z,999.81
2018-11-10T02:42:10.994Z,999.77
2018-11-10T02:43:10.964Z,999.80
2018-11-10T02:45:04.163Z,999.72
2018-11-10T02:46:03.918Z,999.74
2018-11-10T02:47:57.080Z,999.73
2018-11-10T02:48:56.792Z,999.72
2018-11-10T02:50:50.422Z,999.68
2018-11-10T02:51:50.153Z,999.68
2018-11-10T02:53:43.688Z,999.59
2018-11-10T02:54:43.510Z,999.61
2018-11-10T02:56:36.670Z,999.63
2018-11-10T02:57:36.343Z,999.57
2018-11-10T02:59:29.518Z,999.56
2018-11-10T03:00:29.219Z,999.55
2018-11-10T03:02:23.435Z,999.48
2018-11-10T03:03:22.585Z,999.50
2018-11-10T03:05:16.184Z,999.50
2018-11-10T03:06:15.918Z,999.49
2018-11-10T03:08:11.631Z,999.46
2018-11-10T03:09:08.812Z,999.49
2018-11-10T03:11:01.682Z,999.44
2018-11-10T03:12:01.669Z,999.45
2018-11-10T03:13:55.193Z,999.40
2018-11-10T03:14:54.997Z,999.33
2018-11-10T03:16:48.057Z,999.34
2018-11-10T03:17:47.899Z,999.35
2018-11-10T03:19:41.457Z,999.30
2018-11-10T03:20:41.275Z,999.39
2018-11-10T03:22:34.346Z,999.36
2018-11-10T03:23:34.087Z,999.29
2018-11-10T03:25:27.691Z,999.36
2018-11-10T03:26:27.584Z,999.44
2018-11-10T03:28:21.157Z,999.37
2018-11-10T03:29:20.929Z,999.38
2018-11-10T03:31:13.800Z,999.39
2018-11-10T03:32:13.788Z,999.36
2018-11-10T03:34:07.164Z,999.38
2018-11-10T03:35:07.138Z,999.39
2018-11-10T03:37:00.249Z,999.38
2018-11-10T03:38:00.027Z,999.40
2018-11-10T03:39:53.101Z,999.34
2018-11-10T03:40:52.845Z,999.34
2018-11-10T03:42:47.301Z,999.40
2018-11-10T03:43:47.241Z,999.36
2018-11-10T03:45:40.748Z,999.33
2018-11-10T03:46:40.568Z,999.41
2018-11-10T03:48:33.994Z,999.35
2018-11-10T03:49:33.932Z,999.40
2018-11-10T03:51:28.511Z,999.32
2018-11-10T03:52:28.298Z,999.38
2018-11-10T03:54:21.704Z,999.34
2018-11-10T03:55:21.642Z,999.29
2018-11-10T03:57:15.041Z,999.33
2018-11-10T03:58:14.997Z,999.29
2018-11-10T04:00:08.573Z,999.30
2018-11-10T04:01:08.361Z,999.28
2018-11-10T04:03:01.257Z,999.29
2018-11-10T04:04:01.249Z,999.28
2018-11-10T04:05:54.117Z,999.18
2018-11-10T04:06:54.092Z,999.15
2018-11-10T04:08:47.130Z,999.13
2018-11-10T04:09:46.960Z,999.06
2018-11-10T04:11:40.124Z,999.10
2018-11-10T04:12:39.828Z,999.05
2018-11-10T04:14:33.228Z,999.06
2018-11-10T04:15:33.189Z,998.99
2018-11-10T04:17:27.822Z,999.02
2018-11-10T04:18:27.851Z,999.06
2018-11-10T04:20:21.243Z,999.01
2018-11-10T04:21:20.921Z,999.06
2018-11-10T04:23:14.345Z,998.94
2018-11-10T04:24:15.137Z,999.00
2018-11-10T04:26:07.977Z,998.93
2018-11-10T04:27:07.912Z,998.92
2018-11-10T04:29:00.762Z,999.01
2018-11-10T04:30:01.086Z,998.91
2018-11-10T04:31:54.191Z,998.87
2018-11-10T04:32:53.845Z,998.92
2018-11-10T04:34:47.172Z,998.94
2018-11-10T04:35:47.634Z,998.95
2018-11-10T04:37:39.973Z,998.95
2018-11-10T04:38:39.597Z,998.87
2018-11-10T04:40:33.365Z,998.87
2018-11-10T04:41:32.990Z,998.87
2018-11-10T04:43:26.530Z,998.85
2018-11-10T04:44:26.292Z,998.84
2018-11-10T04:46:19.749Z,998.86
2018-11-10T04:47:19.669Z,998.81
2018-11-10T04:49:13.400Z,998.78
2018-11-10T04:50:13.391Z,998.80
2018-11-10T04:52:07.656Z,998.82
2018-11-10T04:53:07.386Z,998.80
2018-11-10T04:55:01.030Z,998.79
2018-11-10T04:56:01.313Z,998.66
2018-11-10T04:57:54.379Z,998.73
2018-11-10T04:58:54.129Z,998.72
2018-11-10T05:00:47.355Z,998.68
2018-11-10T05:01:47.029Z,998.66
2018-11-10T05:03:40.687Z,998.64
2018-11-10T05:04:40.335Z,998.60
2018-11-10T05:06:33.733Z,998.64
2018-11-10T05:07:33.708Z,998.65
2018-11-10T05:09:26.832Z,998.61
2018-11-10T05:10:26.581Z,998.56
2018-11-10T05:12:19.495Z,998.57
2018-11-10T05:13:19.434Z,998.60
2018-11-10T05:15:12.342Z,998.61
2018-11-10T05:16:12.354Z,998.54
2018-11-10T05:18:06.006Z,998.61
2018-11-10T05:19:05.877Z,998.54
2018-11-10T05:20:58.887Z,998.66
2018-11-10T05:21:58.536Z,998.60
2018-11-10T05:23:52.195Z,998.60
2018-11-10T05:24:51.899Z,998.56
2018-11-10T05:26:45.348Z,998.56
2018-11-10T05:27:45.629Z,998.56
2018-11-10T05:29:39.948Z,998.48
2018-11-10T05:30:39.641Z,998.51
2018-11-10T05:32:33.651Z,998.44
2018-11-10T05:33:33.005Z,998.47
2018-11-10T05:35:26.117Z,998.50
2018-11-10T05:36:25.905Z,998.52
2018-11-10T05:38:19.261Z,998.51
2018-11-10T05:39:19.434Z,998.48
2018-11-10T05:41:12.324Z,998.37
2018-11-10T05:42:12.089Z,998.43
2018-11-10T05:44:05.721Z,998.38
2018-11-10T05:45:05.461Z,998.42
2018-11-10T05:46:58.479Z,998.39
2018-11-10T05:47:58.303Z,998.35
2018-11-10T05:49:51.199Z,998.39
2018-11-10T05:50:51.190Z,998.32
2018-11-10T05:52:44.662Z,998.32
2018-11-10T05:53:44.530Z,998.33
2018-11-10T05:55:37.908Z,998.37
2018-11-10T05:56:37.888Z,998.33
2018-11-10T05:58:31.470Z,998.41
2018-11-10T05:59:31.259Z,998.46
2018-11-10T06:01:24.777Z,998.31
2018-11-10T06:02:24.603Z,998.32
2018-11-10T06:04:17.504Z,998.36
2018-11-10T06:05:17.463Z,998.30
2018-11-10T06:07:10.960Z,998.26
2018-11-10T06:08:10.331Z,998.34
2018-11-10T06:10:03.879Z,998.36
2018-11-10T06:11:03.683Z,998.36
2018-11-10T06:12:56.724Z,998.40
2018-11-10T06:13:57.116Z,998.39
2018-11-10T06:15:49.498Z,998.36
2018-11-10T06:16:49.465Z,998.42
2018-11-10T06:18:42.402Z,998.35
2018-11-10T06:19:42.326Z,998.45
2018-11-10T06:21:35.262Z,998.46
2018-11-10T06:22:35.189Z,998.44
2018-11-10T06:24:28.607Z,998.48
2018-11-10T06:25:28.550Z,998.52
2018-11-10T06:27:21.952Z,998.51
2018-11-10T06:28:21.917Z,998.47
2018-11-10T06:30:15.308Z,998.55
2018-11-10T06:31:15.283Z,998.59
2018-11-10T06:33:08.252Z,998.53
2018-11-10T06:34:08.152Z,998.51
2018-11-10T06:36:01.585Z,998.51
2018-11-10T06:37:01.520Z,998.53
2018-11-10T06:38:54.465Z,998.58
2018-11-10T06:39:54.371Z,998.57
2018-11-10T06:41:47.259Z,998.67
2018-11-10T06:42:47.232Z,998.63
2018-11-10T06:44:40.126Z,998.72
2018-11-10T06:45:40.105Z,998.77
2018-11-10T06:47:33.045Z,998.77
2018-11-10T06:48:32.960Z,998.83
2018-11-10T06:50:26.353Z,998.83
2018-11-10T06:51:26.322Z,998.91
2018-11-10T06:53:19.288Z,998.87
2018-11-10T06:54:19.176Z,998.94
2018-11-10T06:56:12.144Z,998.89
2018-11-10T06:57:12.045Z,998.95
2018-11-10T06:59:04.936Z,998.91
2018-11-10T07:00:04.913Z,998.89
2018-11-10T07:01:58.289Z,998.97
2018-11-10T07:02:58.268Z,998.97
2018-11-10T07:04:51.154Z,998.94
2018-11-10T07:05:51.126Z,998.97
2018-11-10T07:07:44.523Z,998.93
2018-11-10T07:08:44.533Z,998.98
2018-11-10T07:10:37.537Z,998.98
2018-11-10T07:11:37.360Z,998.99
2018-11-10T07:13:30.527Z,998.91
2018-11-10T07:14:30.501Z,998.90
2018-11-10T07:16:23.931Z,998.89
2018-11-10T07:17:23.865Z,998.89
2018-11-10T07:19:16.748Z,998.89
2018-11-10T07:20:16.729Z,998.95
2018-11-10T07:22:09.609Z,998.92
2018-11-10T07:23:09.585Z,998.94
2018-11-10T07:25:02.540Z,998.93
2018-11-10T07:26:02.443Z,998.90
2018-11-10T07:27:55.979Z,998.88
2018-11-10T07:28:55.814Z,998.92
2018-11-10T07:30:49.348Z,999.01
2018-11-10T07:31:49.208Z,998.95
2018-11-10T07:33:42.549Z,998.95
2018-11-10T07:34:42.522Z,999.01
2018-11-10T07:36:35.600Z,998.96
2018-11-10T07:37:35.459Z,999.02
2018-11-10T07:39:28.881Z,999.06
2018-11-10T07:40:28.743Z,998.98
2018-11-10T07:42:21.927Z,999.04
2018-11-10T07:43:21.910Z,999.03
2018-11-10T07:45:14.878Z,999.02
2018-11-10T07:46:14.741Z,999.10
2018-11-10T07:48:08.279Z,999.05
2018-11-10T07:49:08.162Z,999.06
2018-11-10T07:51:01.084Z,999.09
2018-11-10T07:52:00.975Z,999.12
2018-11-10T07:53:54.911Z,999.13
2018-11-10T07:54:54.340Z,999.13
2018-11-10T07:56:47.289Z,998.98
2018-11-10T07:57:47.204Z,998.96
2018-11-10T07:59:40.093Z,999.06
2018-11-10T08:00:40.072Z,999.02
2018-11-10T08:02:32.969Z,998.96
2018-11-10T08:03:32.938Z,998.98
2018-11-10T08:05:26.442Z,999.05
2018-11-10T08:06:26.324Z,999.04
2018-11-10T08:08:19.681Z,998.96
2018-11-10T08:09:20.229Z,999.00
2018-11-10T08:11:13.148Z,999.04
2018-11-10T08:12:13.053Z,998.98
2018-11-10T08:14:06.018Z,999.04
2018-11-10T08:15:06.439Z,999.03
2018-11-10T08:16:59.326Z,998.95
2018-11-10T08:17:59.240Z,999.03
2018-11-10T08:19:52.636Z,999.04
2018-11-10T08:20:52.606Z,999.07
2018-11-10T08:22:45.610Z,998.94
2018-11-10T08:23:45.473Z,999.03
2018-11-10T08:25:38.353Z,999.01
2018-11-10T08:26:38.326Z,998.96
2018-11-10T08:28:31.702Z,998.99
2018-11-10T08:29:31.698Z,999.07
2018-11-10T08:31:25.191Z,998.98
2018-11-10T08:32:25.614Z,998.94
2018-11-10T08:34:18.467Z,999.01
2018-11-10T08:35:18.413Z,998.99
2018-11-10T08:37:11.799Z,999.10
2018-11-10T08:38:11.781Z,999.04
2018-11-10T08:40:05.151Z,999.07
2018-11-10T08:41:05.114Z,999.09
2018-11-10T08:42:58.503Z,999.02
2018-11-10T08:43:58.473Z,999.00
2018-11-10T08:45:51.367Z,999.14
2018-11-10T08:46:51.336Z,999.15
2018-11-10T08:48:44.240Z,999.18
2018-11-10T08:49:44.210Z,999.14
2018-11-10T08:51:37.601Z,999.13
2018-11-10T08:52:37.580Z,999.07
2018-11-10T08:54:30.957Z,999.10
2018-11-10T08:55:30.928Z,999.09
2018-11-10T08:57:23.836Z,999.13
2018-11-10T08:58:23.807Z,999.12
2018-11-10T09:00:17.204Z,999.16
2018-11-10T09:01:17.189Z,999.14
2018-11-10T09:03:10.603Z,999.14
2018-11-10T09:04:10.582Z,999.20
2018-11-10T09:06:03.478Z,999.13
2018-11-10T09:07:03.432Z,999.17
2018-11-10T09:08:56.336Z,999.17
2018-11-10T09:09:56.406Z,999.15
2018-11-10T09:11:49.689Z,999.09
2018-11-10T09:12:49.665Z,999.09
2018-11-10T09:14:42.558Z,999.10
2018-11-10T09:15:42.530Z,999.05
2018-11-10T09:17:35.426Z,999.08
2018-11-10T09:18:35.393Z,999.14
2018-11-10T09:20:28.786Z,999.13
2018-11-10T09:21:28.881Z,999.15
2018-11-10T09:23:23.560Z,999.16
2018-11-10T09:24:23.489Z,999.17
2018-11-10T09:26:16.388Z,999.15
2018-11-10T09:27:16.360Z,999.15
2018-11-10T09:29:09.759Z,999.10
2018-11-10T09:30:09.732Z,999.07
2018-11-10T09:32:02.631Z,999.08
2018-11-10T09:33:02.608Z,999.07
2018-11-10T09:34:55.574Z,999.15
2018-11-10T09:35:55.476Z,999.09
2018-11-10T09:37:48.859Z,999.10
2018-11-10T09:38:48.834Z,999.09
2018-11-10T09:40:41.733Z,999.10
2018-11-10T09:41:41.703Z,999.06
2018-11-10T09:43:34.595Z,999.07
2018-11-10T09:44:34.588Z,999.07
2018-11-10T09:46:28.021Z,999.10
2018-11-10T09:47:27.442Z,999.09
2018-11-10T09:49:21.597Z,999.08
2018-11-10T09:50:21.161Z,999.07
2018-11-10T09:52:14.111Z,999.06
2018-11-10T09:53:14.083Z,999.06
2018-11-10T09:55:07.012Z,999.04
2018-11-10T09:56:06.966Z,999.04
2018-11-10T09:58:00.456Z,999.10
2018-11-10T09:59:00.586Z,999.10
2018-11-10T10:00:53.762Z,999.06
2018-11-10T10:01:53.971Z,998.99
2018-11-10T10:03:47.141Z,999.06
2018-11-10T10:04:47.102Z,999.02
2018-11-10T10:06:40.757Z,999.00
2018-11-10T10:07:39.983Z,999.10
2018-11-10T10:09:33.074Z,999.09
2018-11-10T10:10:32.913Z,999.05
2018-11-10T10:12:25.774Z,999.05
2018-11-10T10:13:25.958Z,999.10
2018-11-10T10:15:20.722Z,999.08
2018-11-10T10:16:22.094Z,999.07
2018-11-10T10:18:12.294Z,999.01
2018-11-10T10:19:11.820Z,999.03
2018-11-10T10:21:05.292Z,999.07
2018-11-10T10:22:05.169Z,999.11
2018-11-10T10:23:59.571Z,999.00
2018-11-10T10:24:59.113Z,999.04
2018-11-10T10:26:53.422Z,999.04
2018-11-10T10:27:53.155Z,999.02
2018-11-10T10:29:46.628Z,999.03
2018-11-10T10:30:46.590Z,999.06
2018-11-10T10:32:41.315Z,998.98
2018-11-10T10:33:40.770Z,998.94
2018-11-10T10:35:35.448Z,998.98
2018-11-10T10:36:35.169Z,998.95
2018-11-10T10:38:28.175Z,998.99
2018-11-10T10:39:28.210Z,998.97
2018-11-10T10:41:21.170Z,998.94
2018-11-10T10:42:21.068Z,998.85
2018-11-10T10:44:14.291Z,998.95
2018-11-10T10:45:13.931Z,998.94
2018-11-10T10:47:06.937Z,998.92
2018-11-10T10:48:06.800Z,998.95
2018-11-10T10:50:00.501Z,998.87
2018-11-10T10:51:00.243Z,998.89
2018-11-10T10:52:54.020Z,998.84
2018-11-10T10:53:53.618Z,998.85
2018-11-10T10:55:47.310Z,998.88
2018-11-10T10:56:47.073Z,998.86
2018-11-10T10:58:40.422Z,998.87
2018-11-10T10:59:40.144Z,998.81
2018-11-10T11:01:33.419Z,998.69
2018-11-10T11:02:33.087Z,998.72
2018-11-10T11:04:26.298Z,998.65
2018-11-10T11:05:26.254Z,998.66
2018-11-10T11:07:19.781Z,998.60
2018-11-10T11:08:19.622Z,998.55
2018-11-10T11:10:13.239Z,998.51
2018-11-10T11:11:13.114Z,998.57
2018-11-10T11:13:10.852Z,998.57
2018-11-10T11:14:09.905Z,998.57
2018-11-10T11:16:03.542Z,998.51
2018-11-10T11:17:03.228Z,998.54
2018-11-10T11:18:56.785Z,998.53
2018-11-10T11:19:56.706Z,998.59
2018-11-10T11:21:50.902Z,998.57
2018-11-10T11:22:49.884Z,998.50
2018-11-10T11:24:44.608Z,998.50
2018-11-10T11:25:43.465Z,998.53
2018-11-10T11:27:37.839Z,998.52
2018-11-10T11:28:36.795Z,998.53
2018-11-10T11:30:30.369Z,998.51
2018-11-10T11:31:29.691Z,998.50
2018-11-10T11:33:25.224Z,998.53
2018-11-10T11:35:39.844Z,998.54
2018-11-10T11:36:40.078Z,998.56
2018-11-10T11:38:29.906Z,998.43
2018-11-10T11:39:29.478Z,998.55
2018-11-10T11:41:23.000Z,998.56
2018-11-10T11:42:22.590Z,998.54
2018-11-10T11:44:17.483Z,998.52
2018-11-10T11:45:17.109Z,998.51
2018-11-10T11:47:22.914Z,998.44
2018-11-10T11:48:20.681Z,998.51
2018-11-10T11:50:15.411Z,998.45
2018-11-10T11:51:14.991Z,998.40
2018-11-10T11:53:27.510Z,998.31
2018-11-10T11:54:25.257Z,998.32
2018-11-10T11:56:18.989Z,998.34
2018-11-10T11:57:18.836Z,998.34
2018-11-10T11:59:12.580Z,998.32
2018-11-10T12:00:12.615Z,998.31
2018-11-10T12:02:06.067Z,998.31
2018-11-10T12:03:05.989Z,998.31
2018-11-10T12:04:59.136Z,998.32
2018-11-10T12:05:59.044Z,998.26
2018-11-10T12:07:53.029Z,998.31
2018-11-10T12:08:53.470Z,998.29
2018-11-10T12:10:45.623Z,998.30
2018-11-10T12:11:45.394Z,998.27
2018-11-10T12:13:38.421Z,998.22
2018-11-10T12:14:38.392Z,998.20
2018-11-10T12:16:31.858Z,998.21
2018-11-10T12:17:31.766Z,998.16
2018-11-10T12:19:26.852Z,998.13
2018-11-10T12:20:28.474Z,998.21
2018-11-10T12:22:19.957Z,998.16
2018-11-10T12:23:19.801Z,998.15
2018-11-10T12:25:12.771Z,998.12
2018-11-10T12:26:12.788Z,998.15
2018-11-10T12:28:05.872Z,998.08
2018-11-10T12:29:05.769Z,998.11
2018-11-10T12:30:58.802Z,998.08
2018-11-10T12:31:58.718Z,998.08
2018-11-10T12:33:52.185Z,998.03
2018-11-10T12:34:52.523Z,998.07
2018-11-10T12:36:46.812Z,998.03
2018-11-10T12:37:45.526Z,998.03
2018-11-10T12:39:40.596Z,997.98
2018-11-10T12:40:38.939Z,997.98
2018-11-10T12:42:33.164Z,997.95
2018-11-10T12:43:32.249Z,997.95
2018-11-10T12:45:26.582Z,997.98
2018-11-10T12:46:27.287Z,997.92
2018-11-10T12:48:19.508Z,997.95
2018-11-10T12:49:20.535Z,997.91
2018-11-10T12:51:12.963Z,997.90
2018-11-10T12:52:12.561Z,997.90
2018-11-10T12:54:07.978Z,997.97
2018-11-10T12:55:05.740Z,997.91
2018-11-10T12:57:00.807Z,997.92
2018-11-10T12:57:59.835Z,997.91
2018-11-10T12:59:53.095Z,997.89
2018-11-10T13:00:52.964Z,997.89
2018-11-10T13:02:46.334Z,997.92
2018-11-10T13:03:46.327Z,997.88
2018-11-10T13:05:39.134Z,997.86
2018-11-10T13:06:39.112Z,997.93
2018-11-10T13:08:32.580Z,997.84
2018-11-10T13:09:32.055Z,997.88
2018-11-10T13:11:24.999Z,997.86
2018-11-10T13:12:24.917Z,997.91
2018-11-10T13:14:18.375Z,997.87
2018-11-10T13:15:18.292Z,997.88
2018-11-10T13:17:11.248Z,997.90
2018-11-10T13:18:11.189Z,997.83
2018-11-10T13:20:04.195Z,997.86
2018-11-10T13:21:04.107Z,997.86
2018-11-10T13:22:56.944Z,997.85
2018-11-10T13:23:56.960Z,997.83
2018-11-10T13:25:50.634Z,997.86
2018-11-10T13:26:49.791Z,997.77
2018-11-10T13:29:34.028Z,997.69
2018-11-10T13:30:33.761Z,997.71
2018-11-10T13:32:27.425Z,997.65
2018-11-10T13:33:27.123Z,997.72
2018-11-10T13:35:20.722Z,997.75
2018-11-10T13:36:20.494Z,997.69
2018-11-10T13:38:14.331Z,997.75
2018-11-10T13:39:13.876Z,997.74
2018-11-10T13:41:07.307Z,997.77
2018-11-10T13:42:07.212Z,997.75
2018-11-10T13:44:00.712Z,997.78
2018-11-10T13:45:00.551Z,997.66
2018-11-10T13:46:54.057Z,997.77
2018-11-10T13:47:53.925Z,997.75
2018-11-10T13:49:46.802Z,997.75
2018-11-10T13:50:46.823Z,997.71
2018-11-10T13:52:40.559Z,997.70
2018-11-10T13:53:40.148Z,997.70
2018-11-10T13:55:33.532Z,997.65
2018-11-10T13:56:33.503Z,997.63
2018-11-10T13:58:26.590Z,997.70
2018-11-10T13:59:26.460Z,997.74
2018-11-10T14:01:20.304Z,997.78
2018-11-10T14:02:19.296Z,997.74
2018-11-10T14:04:12.925Z,997.74
2018-11-10T14:05:12.707Z,997.74
2018-11-10T14:07:06.056Z,997.71
2018-11-10T14:08:06.023Z,997.70
2018-11-10T14:09:59.671Z,997.63
2018-11-10T14:10:59.517Z,997.58
2018-11-10T14:12:52.874Z,997.50
2018-11-10T14:13:52.800Z,997.44
2018-11-10T14:15:45.770Z,997.45
2018-11-10T14:16:45.675Z,997.50
2018-11-10T14:18:40.240Z,997.37
2018-11-10T14:19:39.071Z,997.37
2018-11-10T14:21:32.472Z,997.34
2018-11-10T14:22:32.419Z,997.30
2018-11-10T14:24:26.377Z,997.26
2018-11-10T14:25:25.792Z,997.21
2018-11-10T14:27:19.735Z,997.18
2018-11-10T14:28:19.136Z,997.25
2018-11-10T14:30:12.613Z,997.23
2018-11-10T14:31:12.510Z,997.25
2018-11-10T14:33:09.998Z,997.29
2018-11-10T14:34:05.486Z,997.28
2018-11-10T14:35:58.279Z,997.29
2018-11-10T14:36:58.251Z,997.30
2018-11-10T14:38:51.235Z,997.21
2018-11-10T14:39:51.135Z,997.24
2018-11-10T14:41:45.579Z,997.15
2018-11-10T14:42:44.488Z,997.24
2018-11-10T14:44:37.952Z,997.25
2018-11-10T14:45:37.353Z,997.26
2018-11-10T14:47:30.812Z,997.25
2018-11-10T14:48:30.718Z,997.31
2018-11-10T14:50:24.642Z,997.46
2018-11-10T14:51:24.101Z,997.34
2018-11-10T14:53:17.842Z,997.43
2018-11-10T14:54:17.709Z,997.44
2018-11-10T14:56:11.167Z,997.54
2018-11-10T14:57:11.077Z,997.55
2018-11-10T14:59:04.070Z,997.51
2018-11-10T15:00:06.848Z,997.57
2018-11-10T15:01:57.512Z,997.49
2018-11-10T15:02:57.312Z,997.52
2018-11-10T15:04:50.230Z,997.60
2018-11-10T15:05:50.262Z,997.55
2018-11-10T15:07:43.132Z,997.54
2018-11-10T15:08:43.077Z,997.60
2018-11-10T15:10:35.970Z,997.64
2018-11-10T15:11:35.972Z,997.70
2018-11-10T15:13:29.396Z,997.67
2018-11-10T15:14:29.328Z,997.72
2018-11-10T15:16:22.823Z,997.69
2018-11-10T15:17:22.690Z,997.67
2018-11-10T15:19:15.573Z,997.60
2018-11-10T15:20:15.552Z,997.65
2018-11-10T15:22:08.995Z,997.65
2018-11-10T15:23:08.907Z,997.67
2018-11-10T15:25:01.812Z,997.63
2018-11-10T15:26:01.780Z,997.68
2018-11-10T15:27:56.831Z,997.76
2018-11-10T15:28:55.135Z,997.84
2018-11-10T15:30:48.628Z,997.86
2018-11-10T15:31:48.594Z,997.87
2018-11-10T15:33:41.505Z,997.77
2018-11-10T15:34:41.469Z,997.83
2018-11-10T15:36:34.359Z,997.80
2018-11-10T15:37:34.369Z,997.78
2018-11-10T15:39:27.728Z,997.81
2018-11-10T15:40:27.717Z,997.82
2018-11-10T15:42:21.165Z,997.85
2018-11-10T15:43:21.078Z,997.88
2018-11-10T15:45:14.809Z,997.80
2018-11-10T15:46:14.789Z,997.84
2018-11-10T15:48:08.493Z,997.81
2018-11-10T15:49:08.528Z,997.80
2018-11-10T15:51:01.846Z,997.82
2018-11-10T15:52:01.827Z,997.77
2018-11-10T15:53:55.207Z,997.83
2018-11-10T15:54:55.188Z,997.79
2018-11-10T15:56:48.087Z,997.80
2018-11-10T15:57:48.053Z,997.82
2018-11-10T15:59:40.948Z,997.78
2018-11-10T16:00:41.105Z,997.79
2018-11-10T16:02:34.661Z,997.81
2018-11-10T16:03:34.284Z,997.90
2018-11-10T16:05:27.177Z,997.85
2018-11-10T16:06:27.156Z,997.83
2018-11-10T16:08:20.542Z,997.84
2018-11-10T16:09:20.564Z,997.84
2018-11-10T16:11:13.409Z,997.79
2018-11-10T16:12:13.384Z,997.78
2018-11-10T16:14:06.769Z,997.81
2018-11-10T16:15:06.746Z,997.81
2018-11-10T16:17:00.192Z,997.78
2018-11-10T16:18:00.166Z,997.81
2018-11-10T16:19:53.056Z,997.79
2018-11-10T16:20:53.111Z,997.83
2018-11-10T16:22:45.942Z,997.78
2018-11-10T16:23:45.925Z,997.85
2018-11-10T16:25:38.813Z,997.86
2018-11-10T16:26:38.788Z,997.85
2018-11-10T16:28:32.278Z,997.92
2018-11-10T16:29:32.159Z,997.95
2018-11-10T16:31:25.060Z,997.91
2018-11-10T16:32:25.030Z,997.93
2018-11-10T16:34:17.912Z,997.87
2018-11-10T16:35:17.890Z,997.92
2018-11-10T16:37:11.380Z,997.98
2018-11-10T16:38:11.248Z,997.99
2018-11-10T16:40:04.184Z,998.00
2018-11-10T16:41:04.117Z,997.98
2018-11-10T16:42:57.016Z,998.05
2018-11-10T16:43:56.979Z,998.06
2018-11-10T16:45:49.901Z,998.05
2018-11-10T16:46:49.858Z,998.03
2018-11-10T16:48:42.755Z,998.01
2018-11-10T16:49:42.721Z,998.04
2018-11-10T16:51:35.612Z,998.04
2018-11-10T16:52:35.586Z,998.05
2018-11-10T16:54:29.025Z,998.04
2018-11-10T16:55:28.971Z,998.07
2018-11-10T16:57:22.344Z,998.01
2018-11-10T16:58:22.303Z,998.02
2018-11-10T17:00:15.192Z,998.07
2018-11-10T17:01:15.167Z,998.07
2018-11-10T17:03:08.224Z,998.12
2018-11-10T17:04:08.062Z,998.15
2018-11-10T17:06:01.740Z,998.13
2018-11-10T17:07:01.410Z,998.13
2018-11-10T17:08:54.905Z,998.11
2018-11-10T17:09:54.295Z,998.11
2018-11-10T17:11:47.775Z,998.13
2018-11-10T17:12:47.170Z,998.08
2018-11-10T17:14:40.565Z,998.10
2018-11-10T17:15:40.602Z,998.08
2018-11-10T17:17:33.909Z,998.05
2018-11-10T17:18:33.883Z,998.06
2018-11-10T17:20:26.784Z,998.10
2018-11-10T17:21:26.806Z,998.08
2018-11-10T17:23:20.145Z,998.11
2018-11-10T17:24:20.122Z,998.19
2018-11-10T17:26:13.010Z,998.15
2018-11-10T17:27:13.061Z,998.19
2018-11-10T17:29:06.402Z,998.17
2018-11-10T17:30:06.363Z,998.18
2018-11-10T17:31:59.798Z,998.21
2018-11-10T17:32:59.707Z,998.21
2018-11-10T17:34:53.130Z,998.24
2018-11-10T17:35:53.070Z,998.27
2018-11-10T17:37:46.134Z,998.28
2018-11-10T17:38:45.978Z,998.26
2018-11-10T17:40:39.709Z,998.25
2018-11-10T17:41:39.422Z,998.22
2018-11-10T17:43:32.549Z,998.22
2018-11-10T17:44:32.535Z,998.23
2018-11-10T17:46:25.484Z,998.20
2018-11-10T17:47:25.400Z,998.21
2018-11-10T17:49:18.934Z,998.20
2018-11-10T17:50:18.793Z,998.18
2018-11-10T17:52:11.755Z,998.14
2018-11-10T17:53:11.660Z,998.08
2018-11-10T17:55:05.060Z,998.09
2018-11-10T17:56:05.038Z,998.11
2018-11-10T17:57:58.066Z,998.13